createdAt,value
2018-11-12T00:00:37.828Z,101204.14
2018-11-12T00:03:07.473Z,101200.69
2018-11-12T00:05:36.933Z,101199.22
2018-11-12T00:08:06.428Z,101198.69
2018-11-12T00:10:35.895Z,101192.56
2018-11-12T00:13:05.406Z,101189.39
2018-11-12T00:15:35.422Z,101191.99
2018-11-12T00:18:05.336Z,101188.73
2018-11-12T00:20:34.896Z,101187.38
2018-11-12T00:23:04.471Z,101188.75
2018-11-12T00:25:33.948Z,101187.62
2018-11-12T00:28:02.562Z,101190.50
2018-11-12T00:30:32.148Z,101192.56
2018-11-12T00:33:01.573Z,101194.05
2018-11-12T00:35:30.930Z,101202.05
2018-11-12T00:38:00.381Z,101195.11
2018-11-12T00:40:29.818Z,101196.28
2018-11-12T00:42:58.363Z,101210.37
2018-11-12T00:45:27.857Z,101212.06
2018-11-12T00:47:56.398Z,101207.57
2018-11-12T00:50:25.105Z,101212.19
2018-11-12T00:52:53.673Z,101229.07
2018-11-12T00:55:23.184Z,101224.73
2018-11-12T00:57:52.566Z,101215.36
2018-11-12T01:00:21.303Z,101220.81
2018-11-12T01:02:51.398Z,101212.19
2018-11-12T01:05:20.408Z,101211.07
2018-11-12T01:07:50.004Z,101211.92
2018-11-12T01:10:19.421Z,101213.48
2018-11-12T01:12:48.972Z,101218.23
2018-11-12T01:15:18.797Z,101218.73
2018-11-12T01:17:48.502Z,101230.42
2018-11-12T01:20:17.840Z,101231.80
2018-11-12T01:22:48.328Z,101234.27
2018-11-12T01:25:17.712Z,101233.47
2018-11-12T01:27:47.600Z,101232.30
2018-11-12T01:30:18.286Z,101240.81
2018-11-12T01:32:47.205Z,101236.98
2018-11-12T01:35:17.591Z,101240.41
2018-11-12T01:37:47.228Z,101239.98
2018-11-12T01:40:17.212Z,101231.91
2018-11-12T01:42:46.394Z,101243.13
2018-11-12T01:45:18.036Z,101241.83
2018-11-12T01:47:48.683Z,101253.80
2018-11-12T01:50:17.948Z,101253.48
2018-11-12T01:52:48.347Z,101250.22
2018-11-12T01:55:17.861Z,101262.71
2018-11-12T01:57:48.417Z,101265.91
2018-11-12T02:00:19.369Z,101275.73
2018-11-12T02:02:49.121Z,101275.60
2018-11-12T02:05:19.017Z,101272.26
2018-11-12T02:07:47.673Z,101262.64
2018-11-12T02:10:18.909Z,101267.11
2018-11-12T02:12:48.724Z,101262.36
2018-11-12T02:15:18.499Z,101260.36
2018-11-12T02:17:47.767Z,101271.73
2018-11-12T02:20:17.915Z,101276.98
2018-11-12T02:22:47.409Z,101275.75
2018-11-12T02:25:17.335Z,101264.63
2018-11-12T02:27:46.956Z,101259.25
2018-11-12T02:30:48.815Z,101261.09
2018-11-12T02:33:18.518Z,101257.67
2018-11-12T02:35:48.076Z,101258.05
2018-11-12T02:38:16.611Z,101254.16
2018-11-12T02:40:46.140Z,101261.56
2018-11-12T02:43:15.563Z,101260.64
2018-11-12T02:45:44.473Z,101265.23
2018-11-12T02:48:13.350Z,101270.93
2018-11-12T02:50:41.951Z,101269.00
2018-11-12T02:53:10.492Z,101273.55
2018-11-12T02:55:40.070Z,101264.24
2018-11-12T02:58:08.634Z,101258.65
2018-11-12T03:00:37.978Z,101269.16
2018-11-12T03:03:07.557Z,101257.55
2018-11-12T03:05:37.109Z,101256.35
2018-11-12T03:08:05.743Z,101256.06
2018-11-12T03:10:34.304Z,101256.66
2018-11-12T03:13:02.883Z,101247.39
2018-11-12T03:15:31.451Z,101248.45
2018-11-12T03:17:59.996Z,101254.84
2018-11-12T03:20:28.494Z,101260.52
2018-11-12T03:22:57.066Z,101243.14
2018-11-12T03:25:25.634Z,101247.57
2018-11-12T03:27:54.279Z,101252.45
2018-11-12T03:30:23.775Z,101259.43
2018-11-12T03:32:53.156Z,101250.91
2018-11-12T03:35:21.813Z,101261.27
2018-11-12T03:37:51.194Z,101252.69
2018-11-12T03:40:21.896Z,101250.55
2018-11-12T03:42:51.030Z,101257.03
2018-11-12T03:45:20.779Z,101252.23
2018-11-12T03:47:49.345Z,101262.56
2018-11-12T03:50:20.250Z,101264.27
2018-11-12T03:52:48.847Z,101273.86
2018-11-12T03:55:18.770Z,101273.52
2018-11-12T03:57:47.398Z,101281.73
2018-11-12T04:00:19.436Z,101278.34
2018-11-12T04:02:47.966Z,101274.55
2018-11-12T04:05:16.629Z,101268.77
2018-11-12T04:07:45.886Z,101267.22
2018-11-12T04:10:16.939Z,101271.51
2018-11-12T04:12:46.473Z,101269.72
2018-11-12T04:15:23.536Z,101268.97
2018-11-12T04:17:53.029Z,101267.36
2018-11-12T04:20:22.702Z,101257.89
2018-11-12T04:23:06.715Z,101264.77
2018-11-12T04:25:37.619Z,101258.16
2018-11-12T04:28:07.072Z,101258.56
2018-11-12T04:30:36.785Z,101256.86
2018-11-12T04:33:06.463Z,101262.80
2018-11-12T04:35:35.255Z,101262.94
2018-11-12T04:38:03.877Z,101273.70
2018-11-12T04:40:33.783Z,101269.45
2018-11-12T04:43:02.399Z,101269.91
2018-11-12T04:45:31.083Z,101268.25
2018-11-12T04:48:00.660Z,101257.94
2018-11-12T04:50:29.642Z,101260.66
2018-11-12T04:52:59.272Z,101265.83
2018-11-12T04:55:28.010Z,101263.69
2018-11-12T04:57:57.367Z,101260.25
2018-11-12T05:00:28.953Z,101261.33
2018-11-12T05:02:57.535Z,101255.52
2018-11-12T05:05:27.302Z,101255.73
2018-11-12T05:07:55.881Z,101263.45
2018-11-12T05:10:25.499Z,101261.76
2018-11-12T05:12:54.713Z,101257.78
2018-11-12T05:15:24.927Z,101254.35
2018-11-12T05:17:53.509Z,101255.29
2018-11-12T05:20:25.473Z,101254.08
2018-11-12T05:22:55.054Z,101260.50
2018-11-12T05:25:24.576Z,101263.17
2018-11-12T05:27:54.255Z,101260.22
2018-11-12T05:30:25.378Z,101264.42
2018-11-12T05:32:54.896Z,101269.97
2018-11-12T05:35:24.726Z,101266.45
2018-11-12T05:37:53.435Z,101281.45
2018-11-12T05:40:24.293Z,101280.47
2018-11-12T05:42:52.916Z,101281.28
2018-11-12T05:45:22.594Z,101281.19
2018-11-12T05:47:52.107Z,101281.47
2018-11-12T05:50:22.123Z,101289.52
2018-11-12T05:52:53.019Z,101289.11
2018-11-12T05:55:22.961Z,101289.06
2018-11-12T05:57:51.679Z,101294.56
2018-11-12T06:00:50.784Z,101304.97
2018-11-12T06:03:20.253Z,101306.21
2018-11-12T06:05:48.829Z,101308.36
2018-11-12T06:08:18.428Z,101299.34
2018-11-12T06:10:47.020Z,101312.95
2018-11-12T06:13:16.622Z,101313.41
2018-11-12T06:15:45.906Z,101314.25
2018-11-12T06:18:14.622Z,101313.36
2018-11-12T06:20:44.967Z,101321.09
2018-11-12T06:23:14.607Z,101321.67
2018-11-12T06:25:43.236Z,101321.31
2018-11-12T06:28:14.644Z,101326.09
2018-11-12T06:30:44.420Z,101321.67
2018-11-12T06:33:13.601Z,101323.59
2018-11-12T06:35:43.620Z,101318.23
2018-11-12T06:38:12.688Z,101322.30
2018-11-12T06:40:41.266Z,101328.37
2018-11-12T06:43:09.938Z,101338.65
2018-11-12T06:45:39.443Z,101344.33
2018-11-12T06:48:08.007Z,101352.09
2018-11-12T06:50:37.633Z,101355.09
2018-11-12T06:53:06.484Z,101358.08
2018-11-12T06:55:34.972Z,101363.48
2018-11-12T06:58:03.549Z,101368.94
2018-11-12T07:00:34.376Z,101374.84
2018-11-12T07:03:02.992Z,101368.06
2018-11-12T07:05:32.067Z,101358.80
2018-11-12T07:08:01.575Z,101370.28
2018-11-12T07:10:31.189Z,101361.00
2018-11-12T07:13:00.500Z,101362.49
2018-11-12T07:15:30.362Z,101362.95
2018-11-12T07:17:58.961Z,101368.33
2018-11-12T07:20:29.544Z,101375.36
2018-11-12T07:22:58.155Z,101375.91
2018-11-12T07:25:28.107Z,101382.41
2018-11-12T07:27:57.782Z,101395.12
2018-11-12T07:30:27.334Z,101393.03
2018-11-12T07:32:57.000Z,101384.92
2018-11-12T07:35:26.016Z,101383.79
2018-11-12T07:37:55.437Z,101382.92
2018-11-12T07:40:25.265Z,101383.70
2018-11-12T07:42:53.892Z,101376.58
2018-11-12T07:45:26.588Z,101372.63
2018-11-12T07:47:55.939Z,101379.27
2018-11-12T07:50:26.222Z,101373.46
2018-11-12T07:52:54.787Z,101367.83
2018-11-12T07:55:24.663Z,101368.72
2018-11-12T07:57:54.308Z,101369.13
2018-11-12T08:00:38.399Z,101385.29
2018-11-12T08:03:09.350Z,101389.52
2018-11-12T08:05:39.255Z,101381.86
2018-11-12T08:08:08.291Z,101371.20
2018-11-12T08:10:36.889Z,101364.49
2018-11-12T08:13:05.844Z,101361.89
2018-11-12T08:15:34.472Z,101367.72
2018-11-12T08:18:03.110Z,101363.24
2018-11-12T08:20:33.719Z,101359.16
2018-11-12T08:23:02.310Z,101360.86
2018-11-12T08:25:30.929Z,101365.45
2018-11-12T08:27:59.533Z,101362.37
2018-11-12T08:30:29.170Z,101370.42
2018-11-12T08:33:00.820Z,101364.05
2018-11-12T08:35:29.414Z,101368.83
2018-11-12T08:37:58.331Z,101373.98
2018-11-12T08:40:29.090Z,101369.61
2018-11-12T08:42:57.558Z,101380.28
2018-11-12T08:45:26.153Z,101379.91
2018-11-12T08:47:55.686Z,101375.64
2018-11-12T08:50:25.557Z,101379.85
2018-11-12T08:52:54.806Z,101378.02
2018-11-12T08:55:24.777Z,101386.27
2018-11-12T08:57:54.693Z,101387.81
2018-11-12T09:00:24.110Z,101384.64
2018-11-12T09:02:52.707Z,101389.44
2018-11-12T09:05:22.557Z,101391.92
2018-11-12T09:07:52.882Z,101404.56
2018-11-12T09:10:23.274Z,101406.15
2018-11-12T09:12:51.842Z,101403.08
2018-11-12T09:15:20.453Z,101394.78
2018-11-12T09:17:49.529Z,101396.05
2018-11-12T09:20:22.419Z,101388.85
2018-11-12T09:22:51.076Z,101386.52
2018-11-12T09:25:21.883Z,101391.56
2018-11-12T09:27:50.560Z,101384.05
2018-11-12T09:30:20.642Z,101393.01
2018-11-12T09:32:49.231Z,101384.98
2018-11-12T09:35:22.952Z,101389.89
2018-11-12T09:37:52.503Z,101388.86
2018-11-12T09:40:23.481Z,101385.17
2018-11-12T09:42:52.089Z,101382.95
2018-11-12T09:45:20.651Z,101384.28
2018-11-12T09:47:49.250Z,101384.43
2018-11-12T09:50:19.980Z,101386.13
2018-11-12T09:52:49.951Z,101381.74
2018-11-12T09:55:19.118Z,101383.13
2018-11-12T09:57:49.090Z,101383.08
2018-11-12T10:00:18.862Z,101391.09
2018-11-12T10:02:48.717Z,101388.39
2018-11-12T10:05:18.711Z,101382.69
2018-11-12T10:07:49.213Z,101384.23
2018-11-12T10:10:26.193Z,101374.65
2018-11-12T10:12:53.406Z,101383.22
2018-11-12T10:15:23.574Z,101377.45
2018-11-12T10:17:52.509Z,101365.26
2018-11-12T10:20:18.224Z,101359.14
2018-11-12T10:22:47.649Z,101359.16
2018-11-12T10:25:17.509Z,101354.97
2018-11-12T10:27:46.810Z,101357.09
2018-11-12T10:30:15.913Z,101352.72
2018-11-12T10:32:44.512Z,101358.88
2018-11-12T10:35:14.730Z,101361.77
2018-11-12T10:37:43.393Z,101359.14
2018-11-12T10:40:15.359Z,101359.84
2018-11-12T10:42:45.695Z,101355.40
2018-11-12T10:45:15.687Z,101356.34
2018-11-12T10:47:45.148Z,101353.70
2018-11-12T10:50:15.290Z,101349.45
2018-11-12T10:52:44.861Z,101345.55
2018-11-12T10:55:15.576Z,101357.30
2018-11-12T10:57:45.468Z,101356.86
2018-11-12T11:00:23.306Z,101356.05
2018-11-12T11:02:58.829Z,101351.09
2018-11-12T11:05:27.391Z,101353.59
2018-11-12T11:07:55.961Z,101343.91
2018-11-12T11:10:26.909Z,101334.80
2018-11-12T11:12:56.491Z,101330.42
2018-11-12T11:15:25.142Z,101326.48
2018-11-12T11:17:54.823Z,101326.44
2018-11-12T11:20:24.273Z,101319.45
2018-11-12T11:22:52.871Z,101304.58
2018-11-12T11:25:22.472Z,101299.05
2018-11-12T11:27:51.054Z,101290.87
2018-11-12T11:30:19.685Z,101284.15
2018-11-12T11:32:48.345Z,101286.45
2018-11-12T11:35:17.843Z,101286.69
2018-11-12T11:37:47.853Z,101287.16
2018-11-12T11:40:25.385Z,101286.38
2018-11-12T11:42:55.008Z,101278.27
2018-11-12T11:45:24.454Z,101280.77
2018-11-12T11:47:54.404Z,101283.27
2018-11-12T11:50:25.251Z,101270.05
2018-11-12T11:52:54.686Z,101267.31
2018-11-12T11:55:25.029Z,101266.28
2018-11-12T11:57:54.938Z,101268.24
2018-11-12T12:00:26.639Z,101264.44
2018-11-12T12:02:56.949Z,101264.70
2018-11-12T12:05:27.276Z,101270.78
2018-11-12T12:07:57.367Z,101260.77
2018-11-12T12:10:26.963Z,101258.27
2018-11-12T12:12:56.596Z,101254.19
2018-11-12T12:15:26.049Z,101257.14
2018-11-12T12:17:55.435Z,101257.03
2018-11-12T12:20:26.240Z,101252.05
2018-11-12T12:22:56.028Z,101254.70
2018-11-12T12:25:24.649Z,101250.97
2018-11-12T12:27:53.265Z,101241.16
2018-11-12T12:30:29.228Z,101244.67
2018-11-12T12:32:59.396Z,101247.70
2018-11-12T12:35:27.980Z,101240.69
2018-11-12T12:37:57.673Z,101234.49
2018-11-12T12:40:27.153Z,101239.44
2018-11-12T12:42:55.774Z,101232.86
2018-11-12T12:45:26.615Z,101239.50
2018-11-12T12:47:57.055Z,101250.64
2018-11-12T12:50:26.518Z,101250.86
2018-11-12T12:52:56.018Z,101264.19
2018-11-12T12:55:25.619Z,101268.75
2018-11-12T12:57:55.042Z,101267.66
2018-11-12T13:00:25.182Z,101271.43
2018-11-12T13:02:54.760Z,101262.91
2018-11-12T13:05:24.395Z,101263.77
2018-11-12T13:07:53.768Z,101259.78
2018-11-12T13:10:24.331Z,101252.05
2018-11-12T13:12:53.976Z,101244.28
2018-11-12T13:15:23.498Z,101248.33
2018-11-12T13:17:52.666Z,101241.62
2018-11-12T13:20:23.681Z,101241.08
2018-11-12T13:22:53.382Z,101238.99
2018-11-12T13:25:22.844Z,101239.98
2018-11-12T13:27:52.368Z,101241.27
2018-11-12T13:30:23.144Z,101238.40
2018-11-12T13:32:52.972Z,101240.55
2018-11-12T13:35:25.502Z,101243.47
2018-11-12T13:37:54.128Z,101241.03
2018-11-12T13:40:24.885Z,101245.16
2018-11-12T13:42:55.136Z,101239.13
2018-11-12T13:45:24.069Z,101240.45
2018-11-12T13:47:52.907Z,101240.73
2018-11-12T13:50:22.811Z,101234.70
2018-11-12T13:52:52.171Z,101233.97
2018-11-12T13:55:21.890Z,101232.78
2018-11-12T13:57:50.520Z,101225.73
2018-11-12T14:00:20.648Z,101231.94
2018-11-12T14:02:49.857Z,101227.68
2018-11-12T14:05:19.727Z,101227.81
2018-11-12T14:07:49.487Z,101240.69
2018-11-12T14:10:19.602Z,101242.38
2018-11-12T14:12:48.618Z,101242.45
2018-11-12T14:15:18.741Z,101241.98
2018-11-12T14:17:47.814Z,101239.63
2018-11-12T14:20:17.386Z,101238.33
2018-11-12T14:22:46.893Z,101239.55
2018-11-12T14:25:17.423Z,101246.17
2018-11-12T14:27:48.150Z,101246.76
2018-11-12T14:30:18.336Z,101247.88
2018-11-12T14:32:47.060Z,101245.09
2018-11-12T14:35:16.546Z,101251.75
2018-11-12T14:37:47.119Z,101249.80
2018-11-12T14:40:17.589Z,101251.30
2018-11-12T14:42:46.986Z,101244.81
2018-11-12T14:45:17.861Z,101248.25
2018-11-12T14:47:48.071Z,101249.67
2018-11-12T14:50:17.640Z,101244.77
2018-11-12T14:52:46.605Z,101243.73
2018-11-12T14:55:16.994Z,101252.15
2018-11-12T14:57:45.720Z,101244.13
2018-11-12T15:00:23.981Z,101250.77
2018-11-12T15:02:52.888Z,101252.53
2018-11-12T15:05:22.946Z,101246.19
2018-11-12T15:07:51.583Z,101244.42
2018-11-12T15:10:20.297Z,101242.66
2018-11-12T15:12:49.913Z,101239.77
2018-11-12T15:15:18.494Z,101252.71
2018-11-12T15:17:47.060Z,101243.39
2018-11-12T15:20:17.308Z,101245.58
2018-11-12T15:22:46.597Z,101243.77
2018-11-12T15:25:19.877Z,101248.19
2018-11-12T15:27:48.471Z,101246.69
2018-11-12T15:30:18.502Z,101250.41
2018-11-12T15:32:47.941Z,101254.44
2018-11-12T15:35:16.748Z,101257.98
2018-11-12T15:37:46.867Z,101263.30
2018-11-12T15:40:16.248Z,101251.97
2018-11-12T15:42:45.386Z,101258.08
2018-11-12T15:45:16.970Z,101257.05
2018-11-12T15:47:46.769Z,101256.56
2018-11-12T15:50:17.262Z,101258.89
2018-11-12T15:52:46.960Z,101260.73
2018-11-12T15:55:16.585Z,101255.09
2018-11-12T15:57:45.902Z,101255.23
2018-11-12T16:00:15.763Z,101262.61
2018-11-12T16:02:44.518Z,101257.84
2018-11-12T16:05:14.980Z,101262.98
2018-11-12T16:07:43.954Z,101272.78
2018-11-12T16:10:15.267Z,101274.73
2018-11-12T16:12:44.713Z,101279.42
2018-11-12T16:15:14.298Z,101276.63
2018-11-12T16:17:43.283Z,101263.19
2018-11-12T16:20:18.566Z,101266.64
2018-11-12T16:22:47.912Z,101265.88
2018-11-12T16:25:17.029Z,101259.01
2018-11-12T16:27:46.739Z,101255.55
2018-11-12T16:30:16.201Z,101270.91
2018-11-12T16:32:46.211Z,101282.88
2018-11-12T16:35:17.189Z,101292.72
2018-11-12T16:37:47.630Z,101280.45
2018-11-12T16:40:16.957Z,101278.84
2018-11-12T16:42:46.995Z,101284.34
2018-11-12T16:45:16.879Z,101282.92
2018-11-12T16:47:45.911Z,101280.13
2018-11-12T16:50:15.257Z,101282.13
2018-11-12T16:52:44.455Z,101281.73
2018-11-12T16:55:19.380Z,101290.96
2018-11-12T16:57:48.198Z,101290.33
2018-11-12T17:00:18.979Z,101307.30
2018-11-12T17:02:47.885Z,101298.52
2018-11-12T17:05:18.976Z,101302.70
2018-11-12T17:07:48.564Z,101312.69
2018-11-12T17:10:19.194Z,101309.13
2018-11-12T17:12:48.588Z,101315.58
2018-11-12T17:15:18.070Z,101326.20
2018-11-12T17:17:47.742Z,101319.08
2018-11-12T17:20:19.390Z,101321.27
2018-11-12T17:22:48.965Z,101321.20
2018-11-12T17:25:18.940Z,101314.24
2018-11-12T17:27:48.920Z,101311.32
2018-11-12T17:30:20.820Z,101306.67
2018-11-12T17:32:50.736Z,101292.70
2018-11-12T17:35:21.512Z,101300.95
2018-11-12T17:37:51.163Z,101301.93
2018-11-12T17:40:23.503Z,101302.31
2018-11-12T17:42:53.740Z,101300.31
2018-11-12T17:45:24.873Z,101298.45
2018-11-12T17:47:54.559Z,101291.07
2018-11-12T17:50:23.918Z,101288.92
2018-11-12T17:52:53.321Z,101304.05
2018-11-12T17:55:21.908Z,101306.00
2018-11-12T17:57:51.520Z,101300.98
2018-11-12T18:00:27.355Z,101301.97
2018-11-12T18:02:56.838Z,101316.47
2018-11-12T18:05:25.412Z,101310.86
2018-11-12T18:07:55.105Z,101311.78
2018-11-12T18:10:24.621Z,101305.16
2018-11-12T18:12:54.183Z,101303.21
2018-11-12T18:15:24.271Z,101310.55
2018-11-12T18:17:52.990Z,101305.33
2018-11-12T18:20:24.763Z,101308.22
2018-11-12T18:22:54.488Z,101308.15
2018-11-12T18:25:23.962Z,101309.34
2018-11-12T18:27:52.812Z,101308.05
2018-11-12T18:30:23.987Z,101305.50
2018-11-12T18:32:54.674Z,101317.86
2018-11-12T18:35:23.355Z,101312.66
2018-11-12T18:37:52.800Z,101317.45
2018-11-12T18:40:23.692Z,101314.30
2018-11-12T18:42:52.218Z,101314.52
2018-11-12T18:45:23.121Z,101309.08
2018-11-12T18:47:53.070Z,101308.34
2018-11-12T18:50:23.776Z,101311.80
2018-11-12T18:52:53.341Z,101305.27
2018-11-12T18:55:22.293Z,101316.48
2018-11-12T18:57:51.293Z,101312.58
2018-11-12T19:00:22.385Z,101309.25
2018-11-12T19:02:51.357Z,101315.70
2018-11-12T19:05:21.595Z,101322.45
2018-11-12T19:07:51.285Z,101323.86
2018-11-12T19:10:22.363Z,101327.83
2018-11-12T19:12:51.462Z,101333.62
2018-11-12T19:15:21.923Z,101330.17
2018-11-12T19:17:53.705Z,101328.94
2018-11-12T19:20:22.289Z,101337.54
2018-11-12T19:22:50.883Z,101340.89
2018-11-12T19:25:19.782Z,101328.96
2018-11-12T19:27:48.395Z,101332.73
2018-11-12T19:30:19.413Z,101333.78
2018-11-12T19:32:48.118Z,101330.73
2018-11-12T19:35:19.084Z,101323.02
2018-11-12T19:37:47.683Z,101322.69
2018-11-12T19:40:18.633Z,101329.23
2018-11-12T19:42:48.189Z,101325.68
2018-11-12T19:45:17.682Z,101329.59
2018-11-12T19:47:47.389Z,101335.89
2018-11-12T19:50:18.005Z,101335.63
2018-11-12T19:52:47.607Z,101343.77
2018-11-12T19:55:17.131Z,101346.14
2018-11-12T19:57:47.735Z,101340.41
2018-11-12T20:00:18.552Z,101346.92
2018-11-12T20:02:48.510Z,101350.20
2018-11-12T20:05:17.064Z,101355.64
2018-11-12T20:07:46.610Z,101350.41
2018-11-12T20:10:17.247Z,101354.85
2018-11-12T20:12:46.928Z,101358.22
2018-11-12T20:15:17.734Z,101358.22
2018-11-12T20:17:48.200Z,101361.61
2018-11-12T20:20:21.498Z,101359.52
2018-11-12T20:22:50.648Z,101354.03
2018-11-12T20:25:19.986Z,101350.97
2018-11-12T20:27:49.243Z,101352.27
2018-11-12T20:30:22.730Z,101359.52
2018-11-12T20:32:51.366Z,101364.36
2018-11-12T20:35:20.896Z,101367.17
2018-11-12T20:37:49.564Z,101364.98
2018-11-12T20:40:18.401Z,101364.73
2018-11-12T20:42:47.873Z,101365.50
2018-11-12T20:45:17.521Z,101360.36
2018-11-12T20:47:48.195Z,101362.11
2018-11-12T20:50:18.068Z,101358.29
2018-11-12T20:52:48.069Z,101360.61
2018-11-12T20:55:17.560Z,101358.61
2018-11-12T20:57:46.572Z,101365.39
2018-11-12T21:00:18.516Z,101363.30
2018-11-12T21:02:48.530Z,101362.50
2018-11-12T21:05:18.584Z,101356.59
2018-11-12T21:07:48.058Z,101359.59
2018-11-12T21:10:18.686Z,101370.58
2018-11-12T21:12:48.807Z,101363.56
2018-11-12T21:15:19.504Z,101369.24
2018-11-12T21:17:48.080Z,101377.51
2018-11-12T21:20:19.087Z,101372.08
2018-11-12T21:22:48.987Z,101370.56
2018-11-12T21:25:20.008Z,101370.96
2018-11-12T21:27:49.494Z,101374.17
2018-11-12T21:30:21.390Z,101365.06
2018-11-12T21:32:51.085Z,101364.61
2018-11-12T21:35:19.881Z,101367.22
2018-11-12T21:37:50.096Z,101361.25
2018-11-12T21:40:21.402Z,101368.19
2018-11-12T21:42:51.134Z,101364.67
2018-11-12T21:45:21.250Z,101360.92
2018-11-12T21:47:49.788Z,101365.97
2018-11-12T21:50:19.685Z,101374.03
2018-11-12T21:52:49.317Z,101373.37
2018-11-12T21:55:17.927Z,101375.55
2018-11-12T21:57:46.584Z,101369.73
2018-11-12T22:00:23.860Z,101382.22
2018-11-12T22:02:53.866Z,101382.70
2018-11-12T22:05:22.476Z,101386.22
2018-11-12T22:07:51.123Z,101393.63
2018-11-12T22:10:20.219Z,101380.94
2018-11-12T22:12:49.752Z,101375.87
2018-11-12T22:15:18.486Z,101382.08
2018-11-12T22:17:47.055Z,101374.41
2018-11-12T22:20:17.293Z,101379.17
2018-11-12T22:22:46.843Z,101375.38
2018-11-12T22:25:17.549Z,101377.08
2018-11-12T22:27:47.434Z,101372.64
2018-11-12T22:30:19.236Z,101373.82
2018-11-12T22:32:50.134Z,101370.43
2018-11-12T22:35:18.775Z,101371.97
2018-11-12T22:37:47.727Z,101365.67
2018-11-12T22:40:18.615Z,101365.67
2018-11-12T22:42:49.246Z,101367.45
2018-11-12T22:45:19.302Z,101373.73
2018-11-12T22:47:48.348Z,101363.52
2018-11-12T22:50:16.882Z,101364.16
2018-11-12T22:52:46.432Z,101357.55
2018-11-12T22:55:18.605Z,101369.45
2018-11-12T22:57:48.096Z,101372.75
2018-11-12T23:00:25.708Z,101371.35
2018-11-12T23:02:55.517Z,101377.09
2018-11-12T23:05:24.510Z,101385.36
2018-11-12T23:07:53.824Z,101387.81
2018-11-12T23:10:23.411Z,101386.39
2018-11-12T23:12:53.138Z,101387.91
2018-11-12T23:15:22.854Z,101393.19
2018-11-12T23:17:52.269Z,101394.63
2018-11-12T23:20:24.022Z,101390.73
2018-11-12T23:22:53.739Z,101394.78
2018-11-12T23:25:23.235Z,101396.63
2018-11-12T23:27:53.205Z,101385.98
2018-11-12T23:30:23.615Z,101387.09
2018-11-12T23:32:53.044Z,101397.60
2018-11-12T23:35:24.688Z,101400.57
2018-11-12T23:37:53.306Z,101396.81
2018-11-12T23:40:22.869Z,101399.64
2018-11-12T23:42:52.375Z,101393.33
2018-11-12T23:45:21.846Z,101404.33
2018-11-12T23:47:50.388Z,101404.20
2018-11-12T23:50:21.099Z,101399.41
2018-11-12T23:52:50.332Z,101406.10
2018-11-12T23:55:19.239Z,101407.95
2018-11-12T23:57:49.231Z,101410.22
